Accomac, Virginia
Current Conditions -  °F | °C
As of 6:15 PM on Wednesday 17 Dec 2014 (Local Time) from KMFV Reporting Station
Clear Clear  
Wind Chill: 43°   Ceiling: Unl
Heat Index: 43°   Visibility: 10mi
Dew Point: 39°   Wind: 3mph
Humidity: 87%   Direction: 230°SW
Pressure: 29.99"   Gusts: NA
Location:  37.72°N, 75.67°W
Report Text: KMFV 172315Z AUTO 23003KT 10SM CLR 06/04 A2999 RMK AO2
Loading
Personal Weather Stations






























Interactive Weather Map New forecast layout! Learn more

10-Day Weather Forecast

Advertisements
Track Severe Weather on mobile